sensor_id;sensor_type;location;lat;lon;timestamp;temperature;humidity
47521;DHT22;32291;52.010;4.446;2023-02-18T00:00:43;9.90;99.90
47521;DHT22;32291;52.010;4.446;2023-02-18T00:01:44;9.90;99.90
47521;DHT22;32291;52.010;4.446;2023-02-18T00:02:46;9.90;99.90
47521;DHT22;32291;52.010;4.446;2023-02-18T00:03:48;9.90;99.90
47521;DHT22;32291;52.010;4.446;2023-02-18T00:04:49;9.80;99.90
47521;DHT22;32291;52.010;4.446;2023-02-18T00:05:51;9.90;99.90
47521;DHT22;32291;52.010;4.446;2023-02-18T00:06:53;9.90;99.90
47521;DHT22;32291;52.010;4.446;2023-02-18T00:07:54;9.80;99.90
47521;DHT22;32291;52.010;4.446;2023-02-18T00:08:56;9.90;99.90
47521;DHT22;32291;52.010;4.446;2023-02-18T00:10:03;9.80;99.90
47521;DHT22;32291;52.010;4.446;2023-02-18T00:11:06;9.80;99.90
47521;DHT22;32291;52.010;4.446;2023-02-18T00:12:07;9.80;99.90
47521;DHT22;32291;52.010;4.446;2023-02-18T00:13:09;9.80;99.90
47521;DHT22;32291;52.010;4.446;2023-02-18T00:14:13;9.80;99.90
47521;DHT22;32291;52.010;4.446;2023-02-18T00:15:15;9.80;99.90
47521;DHT22;32291;52.010;4.446;2023-02-18T00:16:16;9.80;99.90
47521;DHT22;32291;52.010;4.446;2023-02-18T00:17:18;9.70;99.90
47521;DHT22;32291;52.010;4.446;2023-02-18T00:18:19;9.70;99.90
47521;DHT22;32291;52.010;4.446;2023-02-18T00:19:20;9.70;99.90
47521;DHT22;32291;52.010;4.446;2023-02-18T00:20:22;9.70;99.90
47521;DHT22;32291;52.010;4.446;2023-02-18T00:21:23;9.70;99.90
47521;DHT22;32291;52.010;4.446;2023-02-18T00:22:25;9.60;99.90
47521;DHT22;32291;52.010;4.446;2023-02-18T00:23:26;9.60;99.90
47521;DHT22;32291;52.010;4.446;2023-02-18T00:24:28;9.60;99.90
47521;DHT22;32291;52.010;4.446;2023-02-18T00:25:29;9.60;99.90
47521;DHT22;32291;52.010;4.446;2023-02-18T00:26:30;9.60;99.90
47521;DHT22;32291;52.010;4.446;2023-02-18T00:27:31;9.60;99.90
47521;DHT22;32291;52.010;4.446;2023-02-18T00:28:33;9.60;99.90
47521;DHT22;32291;52.010;4.446;2023-02-18T00:29:35;9.60;99.90
47521;DHT22;32291;52.010;4.446;2023-02-18T00:30:43;9.60;99.90
47521;DHT22;32291;52.010;4.446;2023-02-18T00:31:44;9.60;99.90
47521;DHT22;32291;52.010;4.446;2023-02-18T00:32:45;9.60;99.90
47521;DHT22;32291;52.010;4.446;2023-02-18T00:33:46;9.50;99.90
47521;DHT22;32291;52.010;4.446;2023-02-18T00:34:48;9.60;99.90
47521;DHT22;32291;52.010;4.446;2023-02-18T00:35:50;9.60;99.90
47521;DHT22;32291;52.010;4.446;2023-02-18T00:36:51;9.60;99.90
47521;DHT22;32291;52.010;4.446;2023-02-18T00:37:52;9.60;99.90
47521;DHT22;32291;52.010;4.446;2023-02-18T00:38:56;9.60;99.90
47521;DHT22;32291;52.010;4.446;2023-02-18T00:39:58;9.60;99.90
47521;DHT22;32291;52.010;4.446;2023-02-18T00:41:00;9.60;99.90
47521;DHT22;32291;52.010;4.446;2023-02-18T00:42:01;9.60;99.90
47521;DHT22;32291;52.010;4.446;2023-02-18T00:43:03;9.60;99.90
47521;DHT22;32291;52.010;4.446;2023-02-18T00:44:05;9.60;99.90
47521;DHT22;32291;52.010;4.446;2023-02-18T00:45:06;9.60;99.90
47521;DHT22;32291;52.010;4.446;2023-02-18T00:46:09;9.60;99.90
47521;DHT22;32291;52.010;4.446;2023-02-18T00:47:11;9.60;99.90
47521;DHT22;32291;52.010;4.446;2023-02-18T00:48:12;9.60;99.90
47521;DHT22;32291;52.010;4.446;2023-02-18T00:49:14;9.60;99.90
47521;DHT22;32291;52.010;4.446;2023-02-18T00:50:15;9.60;99.90
47521;DHT22;32291;52.010;4.446;2023-02-18T00:51:17;9.60;99.90
47521;DHT22;32291;52.010;4.446;2023-02-18T00:52:18;9.60;99.90
47521;DHT22;32291;52.010;4.446;2023-02-18T00:53:20;9.60;99.90
47521;DHT22;32291;52.010;4.446;2023-02-18T00:54:22;9.60;99.90
47521;DHT22;32291;52.010;4.446;2023-02-18T00:55:24;9.60;99.90
47521;DHT22;32291;52.010;4.446;2023-02-18T00:56:25;9.60;99.90
47521;DHT22;32291;52.010;4.446;2023-02-18T00:57:26;9.60;99.90
47521;DHT22;32291;52.010;4.446;2023-02-18T00:58:28;9.60;99.90
47521;DHT22;32291;52.010;4.446;2023-02-18T00:59:29;9.60;99.90
47521;DHT22;32291;52.010;4.446;2023-02-18T01:00:31;9.60;99.90
47521;DHT22;32291;52.010;4.446;2023-02-18T01:01:32;9.60;99.90
47521;DHT22;32291;52.010;4.446;2023-02-18T01:02:34;9.60;99.90
47521;DHT22;32291;52.010;4.446;2023-02-18T01:03:37;9.60;99.90
47521;DHT22;32291;52.010;4.446;2023-02-18T01:04:39;9.70;99.90
47521;DHT22;32291;52.010;4.446;2023-02-18T01:05:41;9.60;99.90
47521;DHT22;32291;52.010;4.446;2023-02-18T01:06:42;9.70;99.90
47521;DHT22;32291;52.010;4.446;2023-02-18T01:07:44;9.70;99.90
47521;DHT22;32291;52.010;4.446;2023-02-18T01:08:46;9.70;99.90
47521;DHT22;32291;52.010;4.446;2023-02-18T01:09:48;9.60;99.90
47521;DHT22;32291;52.010;4.446;2023-02-18T01:10:53;9.60;99.90
47521;DHT22;32291;52.010;4.446;2023-02-18T01:11:55;9.60;99.90
47521;DHT22;32291;52.010;4.446;2023-02-18T01:12:56;9.60;99.90
47521;DHT22;32291;52.010;4.446;2023-02-18T01:13:58;9.60;99.90
47521;DHT22;32291;52.010;4.446;2023-02-18T01:14:59;9.60;99.90
47521;DHT22;32291;52.010;4.446;2023-02-18T01:16:00;9.60;99.90
47521;DHT22;32291;52.010;4.446;2023-02-18T01:17:02;9.60;99.90
47521;DHT22;32291;52.010;4.446;2023-02-18T01:18:03;9.60;99.90
47521;DHT22;32291;52.010;4.446;2023-02-18T01:19:04;9.60;99.90
47521;DHT22;32291;52.010;4.446;2023-02-18T01:20:06;9.60;99.90
47521;DHT22;32291;52.010;4.446;2023-02-18T01:21:08;9.60;99.90
47521;DHT22;32291;52.010;4.446;2023-02-18T01:22:10;9.60;99.90
47521;DHT22;32291;52.010;4.446;2023-02-18T01:23:12;9.60;99.90
47521;DHT22;32291;52.010;4.446;2023-02-18T01:24:14;9.60;99.90
47521;DHT22;32291;52.010;4.446;2023-02-18T01:25:15;9.60;99.90
47521;DHT22;32291;52.010;4.446;2023-02-18T01:26:16;9.60;99.90
47521;DHT22;32291;52.010;4.446;2023-02-18T01:27:18;9.60;99.90
47521;DHT22;32291;52.010;4.446;2023-02-18T01:28:19;9.60;99.90
47521;DHT22;32291;52.010;4.446;2023-02-18T01:29:25;9.60;99.90
47521;DHT22;32291;52.010;4.446;2023-02-18T01:30:26;9.60;99.90
47521;DHT22;32291;52.010;4.446;2023-02-18T01:31:27;9.60;99.90
47521;DHT22;32291;52.010;4.446;2023-02-18T01:32:28;9.60;99.90
47521;DHT22;32291;52.010;4.446;2023-02-18T01:33:30;9.60;99.90
47521;DHT22;32291;52.010;4.446;2023-02-18T01:34:31;9.60;99.90
47521;DHT22;32291;52.010;4.446;2023-02-18T01:35:36;9.60;99.90
47521;DHT22;32291;52.010;4.446;2023-02-18T01:36:37;9.60;99.90
47521;DHT22;32291;52.010;4.446;2023-02-18T01:37:39;9.60;99.90
47521;DHT22;32291;52.010;4.446;2023-02-18T01:38:40;9.60;99.90
47521;DHT22;32291;52.010;4.446;2023-02-18T01:39:41;9.60;99.90
47521;DHT22;32291;52.010;4.446;2023-02-18T01:40:48;9.60;99.90
47521;DHT22;32291;52.010;4.446;2023-02-18T01:41:51;9.50;99.90
47521;DHT22;32291;52.010;4.446;2023-02-18T01:42:53;9.50;99.90
47521;DHT22;32291;52.010;4.446;2023-02-18T01:46:34;9.50;99.90
47521;DHT22;32291;52.010;4.446;2023-02-18T01:47:36;9.60;99.90
47521;DHT22;32291;52.010;4.446;2023-02-18T01:49:51;9.60;99.90
47521;DHT22;32291;52.010;4.446;2023-02-18T01:50:59;9.60;99.90
47521;DHT22;32291;52.010;4.446;2023-02-18T01:52:08;9.60;99.90
47521;DHT22;32291;52.010;4.446;2023-02-18T01:53:13;9.60;99.90
47521;DHT22;32291;52.010;4.446;2023-02-18T01:54:21;9.60;99.90
47521;DHT22;32291;52.010;4.446;2023-02-18T01:55:22;9.60;99.90
47521;DHT22;32291;52.010;4.446;2023-02-18T01:57:33;9.60;99.90
47521;DHT22;32291;52.010;4.446;2023-02-18T01:58:35;9.60;99.90
47521;DHT22;32291;52.010;4.446;2023-02-18T01:59:40;9.70;99.90
47521;DHT22;32291;52.010;4.446;2023-02-18T02:00:42;9.60;99.90
47521;DHT22;32291;52.010;4.446;2023-02-18T02:01:44;9.70;99.90
47521;DHT22;32291;52.010;4.446;2023-02-18T02:02:47;9.70;99.90
47521;DHT22;32291;52.010;4.446;2023-02-18T02:03:49;9.70;99.90
47521;DHT22;32291;52.010;4.446;2023-02-18T02:04:51;9.70;99.90
47521;DHT22;32291;52.010;4.446;2023-02-18T02:05:52;9.70;99.90
47521;DHT22;32291;52.010;4.446;2023-02-18T02:06:54;9.70;99.90
47521;DHT22;32291;52.010;4.446;2023-02-18T02:07:55;9.70;99.90
47521;DHT22;32291;52.010;4.446;2023-02-18T02:08:59;9.70;99.90
47521;DHT22;32291;52.010;4.446;2023-02-18T02:10:01;9.70;99.90
47521;DHT22;32291;52.010;4.446;2023-02-18T02:11:16;9.70;99.90
47521;DHT22;32291;52.010;4.446;2023-02-18T02:13:04;9.70;99.90
47521;DHT22;32291;52.010;4.446;2023-02-18T02:14:21;9.70;99.90
47521;DHT22;32291;52.010;4.446;2023-02-18T02:15:44;9.70;99.90
47521;DHT22;32291;52.010;4.446;2023-02-18T02:24:40;9.70;99.90
47521;DHT22;32291;52.010;4.446;2023-02-18T02:27:13;9.70;99.90
47521;DHT22;32291;52.010;4.446;2023-02-18T02:30:08;9.60;99.90
47521;DHT22;32291;52.010;4.446;2023-02-18T02:35:56;9.60;99.90
47521;DHT22;32291;52.010;4.446;2023-02-18T02:37:01;9.60;99.90
47521;DHT22;32291;52.010;4.446;2023-02-18T02:39:45;9.60;99.90
47521;DHT22;32291;52.010;4.446;2023-02-18T02:41:03;9.50;99.90
47521;DHT22;32291;52.010;4.446;2023-02-18T02:43:50;9.60;99.90
47521;DHT22;32291;52.010;4.446;2023-02-18T02:47:55;9.50;99.90
47521;DHT22;32291;52.010;4.446;2023-02-18T02:49:08;9.50;99.90
47521;DHT22;32291;52.010;4.446;2023-02-18T02:51:34;9.50;99.90
47521;DHT22;32291;52.010;4.446;2023-02-18T02:53:01;9.50;99.90
47521;DHT22;32291;52.010;4.446;2023-02-18T02:55:17;9.50;99.90
47521;DHT22;32291;52.010;4.446;2023-02-18T02:56:22;9.40;99.90
47521;DHT22;32291;52.010;4.446;2023-02-18T02:58:25;9.50;99.90
47521;DHT22;32291;52.010;4.446;2023-02-18T02:59:27;9.50;99.90
47521;DHT22;32291;52.010;4.446;2023-02-18T03:01:04;9.40;99.90
47521;DHT22;32291;52.010;4.446;2023-02-18T03:05:00;9.40;99.90
47521;DHT22;32291;52.010;4.446;2023-02-18T03:07:47;9.40;99.90
47521;DHT22;32291;52.010;4.446;2023-02-18T03:11:39;9.50;99.90
47521;DHT22;32291;52.010;4.446;2023-02-18T03:14:18;9.50;99.90
47521;DHT22;32291;52.010;4.446;2023-02-18T03:17:20;9.50;99.90
47521;DHT22;32291;52.010;4.446;2023-02-18T03:18:14;9.50;99.90
47521;DHT22;32291;52.010;4.446;2023-02-18T03:19:49;9.50;99.90
47521;DHT22;32291;52.010;4.446;2023-02-18T03:21:07;9.50;99.90
47521;DHT22;32291;52.010;4.446;2023-02-18T03:22:20;9.50;99.90
47521;DHT22;32291;52.010;4.446;2023-02-18T03:23:28;9.50;99.90
47521;DHT22;32291;52.010;4.446;2023-02-18T03:24:44;9.50;99.90
47521;DHT22;32291;52.010;4.446;2023-02-18T03:25:47;9.60;99.90
47521;DHT22;32291;52.010;4.446;2023-02-18T03:26:58;9.60;99.90
47521;DHT22;32291;52.010;4.446;2023-02-18T03:28:05;9.60;99.90
47521;DHT22;32291;52.010;4.446;2023-02-18T03:29:09;9.60;99.90
47521;DHT22;32291;52.010;4.446;2023-02-18T03:30:17;9.60;99.90
47521;DHT22;32291;52.010;4.446;2023-02-18T03:31:22;9.60;99.90
47521;DHT22;32291;52.010;4.446;2023-02-18T03:32:27;9.60;99.90
47521;DHT22;32291;52.010;4.446;2023-02-18T03:33:36;9.60;99.90
47521;DHT22;32291;52.010;4.446;2023-02-18T03:34:41;9.60;99.90
47521;DHT22;32291;52.010;4.446;2023-02-18T03:35:44;9.60;99.90
47521;DHT22;32291;52.010;4.446;2023-02-18T03:36:47;9.60;99.90
47521;DHT22;32291;52.010;4.446;2023-02-18T03:37:57;9.60;99.90
47521;DHT22;32291;52.010;4.446;2023-02-18T03:39:07;9.60;99.90
47521;DHT22;32291;52.010;4.446;2023-02-18T03:40:09;9.60;99.90
47521;DHT22;32291;52.010;4.446;2023-02-18T03:41:13;9.70;99.90
47521;DHT22;32291;52.010;4.446;2023-02-18T03:42:16;9.70;99.90
47521;DHT22;32291;52.010;4.446;2023-02-18T03:43:18;9.70;99.90
47521;DHT22;32291;52.010;4.446;2023-02-18T03:44:19;9.60;99.90
47521;DHT22;32291;52.010;4.446;2023-02-18T03:45:21;9.70;99.90
47521;DHT22;32291;52.010;4.446;2023-02-18T03:46:23;9.60;99.90
47521;DHT22;32291;52.010;4.446;2023-02-18T03:47:24;9.70;99.90
47521;DHT22;32291;52.010;4.446;2023-02-18T03:48:26;9.70;99.90
47521;DHT22;32291;52.010;4.446;2023-02-18T03:49:27;9.70;99.90
47521;DHT22;32291;52.010;4.446;2023-02-18T03:50:28;9.70;99.90
47521;DHT22;32291;52.010;4.446;2023-02-18T03:51:30;9.70;99.90
47521;DHT22;32291;52.010;4.446;2023-02-18T03:52:32;9.70;99.90
47521;DHT22;32291;52.010;4.446;2023-02-18T03:53:33;9.70;99.90
47521;DHT22;32291;52.010;4.446;2023-02-18T03:54:35;9.70;99.90
47521;DHT22;32291;52.010;4.446;2023-02-18T03:55:36;9.80;99.90
47521;DHT22;32291;52.010;4.446;2023-02-18T03:56:37;9.70;99.90
47521;DHT22;32291;52.010;4.446;2023-02-18T03:57:39;9.80;99.90
47521;DHT22;32291;52.010;4.446;2023-02-18T03:58:40;9.70;99.90
47521;DHT22;32291;52.010;4.446;2023-02-18T03:59:42;9.70;99.90
47521;DHT22;32291;52.010;4.446;2023-02-18T04:00:44;9.80;99.90
47521;DHT22;32291;52.010;4.446;2023-02-18T04:01:45;9.70;99.90
47521;DHT22;32291;52.010;4.446;2023-02-18T04:02:47;9.80;99.90
47521;DHT22;32291;52.010;4.446;2023-02-18T04:03:49;9.80;99.90
47521;DHT22;32291;52.010;4.446;2023-02-18T04:04:50;9.80;99.90
47521;DHT22;32291;52.010;4.446;2023-02-18T04:05:52;9.80;99.90
47521;DHT22;32291;52.010;4.446;2023-02-18T04:06:53;9.80;99.90
47521;DHT22;32291;52.010;4.446;2023-02-18T04:07:55;9.80;99.90
47521;DHT22;32291;52.010;4.446;2023-02-18T04:08:57;9.80;99.90
47521;DHT22;32291;52.010;4.446;2023-02-18T04:09:59;9.90;99.90
47521;DHT22;32291;52.010;4.446;2023-02-18T04:11:01;9.90;99.90
47521;DHT22;32291;52.010;4.446;2023-02-18T04:12:02;9.90;99.90
47521;DHT22;32291;52.010;4.446;2023-02-18T04:13:04;9.90;99.90
47521;DHT22;32291;52.010;4.446;2023-02-18T04:14:06;9.90;99.90
47521;DHT22;32291;52.010;4.446;2023-02-18T04:15:08;9.90;99.90
47521;DHT22;32291;52.010;4.446;2023-02-18T04:16:10;9.90;99.90
47521;DHT22;32291;52.010;4.446;2023-02-18T04:17:12;9.90;99.90
47521;DHT22;32291;52.010;4.446;2023-02-18T04:18:14;10.00;99.90
47521;DHT22;32291;52.010;4.446;2023-02-18T04:19:15;9.90;99.90
47521;DHT22;32291;52.010;4.446;2023-02-18T04:20:17;10.00;99.90
47521;DHT22;32291;52.010;4.446;2023-02-18T04:21:18;10.00;99.90
47521;DHT22;32291;52.010;4.446;2023-02-18T04:22:19;10.00;99.90
47521;DHT22;32291;52.010;4.446;2023-02-18T04:23:21;10.00;99.90
47521;DHT22;32291;52.010;4.446;2023-02-18T04:24:25;10.00;99.90
47521;DHT22;32291;52.010;4.446;2023-02-18T04:25:27;9.90;99.90
47521;DHT22;32291;52.010;4.446;2023-02-18T04:26:28;10.00;99.90
47521;DHT22;32291;52.010;4.446;2023-02-18T04:27:29;10.00;99.90
47521;DHT22;32291;52.010;4.446;2023-02-18T04:28:31;10.00;99.90
47521;DHT22;32291;52.010;4.446;2023-02-18T04:29:33;10.00;99.90
47521;DHT22;32291;52.010;4.446;2023-02-18T04:30:34;10.00;99.90
47521;DHT22;32291;52.010;4.446;2023-02-18T04:31:36;10.00;99.90
47521;DHT22;32291;52.010;4.446;2023-02-18T04:32:37;10.00;99.90
47521;DHT22;32291;52.010;4.446;2023-02-18T04:33:39;10.00;99.90
47521;DHT22;32291;52.010;4.446;2023-02-18T04:34:41;10.00;99.90
47521;DHT22;32291;52.010;4.446;2023-02-18T04:35:43;10.00;99.90
47521;DHT22;32291;52.010;4.446;2023-02-18T04:36:45;10.00;99.90
47521;DHT22;32291;52.010;4.446;2023-02-18T04:37:46;10.00;99.90
47521;DHT22;32291;52.010;4.446;2023-02-18T04:38:48;10.00;99.90
47521;DHT22;32291;52.010;4.446;2023-02-18T04:39:50;10.00;99.90
47521;DHT22;32291;52.010;4.446;2023-02-18T04:40:51;10.00;99.90
47521;DHT22;32291;52.010;4.446;2023-02-18T04:41:53;10.00;99.90
47521;DHT22;32291;52.010;4.446;2023-02-18T04:42:55;10.00;99.90
47521;DHT22;32291;52.010;4.446;2023-02-18T04:43:56;10.00;99.90
47521;DHT22;32291;52.010;4.446;2023-02-18T04:44:59;10.00;99.90
47521;DHT22;32291;52.010;4.446;2023-02-18T04:46:00;10.00;99.90
47521;DHT22;32291;52.010;4.446;2023-02-18T04:47:04;10.00;99.90
47521;DHT22;32291;52.010;4.446;2023-02-18T04:48:05;10.00;99.90
47521;DHT22;32291;52.010;4.446;2023-02-18T04:49:08;10.10;99.90
47521;DHT22;32291;52.010;4.446;2023-02-18T04:50:09;10.00;99.90
47521;DHT22;32291;52.010;4.446;2023-02-18T04:51:11;10.00;99.90
47521;DHT22;32291;52.010;4.446;2023-02-18T04:52:12;10.00;99.90
47521;DHT22;32291;52.010;4.446;2023-02-18T04:53:13;10.00;99.90
47521;DHT22;32291;52.010;4.446;2023-02-18T04:54:15;10.00;99.90
47521;DHT22;32291;52.010;4.446;2023-02-18T04:55:16;10.00;99.90
47521;DHT22;32291;52.010;4.446;2023-02-18T04:56:18;10.00;99.90
47521;DHT22;32291;52.010;4.446;2023-02-18T04:57:20;10.00;99.90
47521;DHT22;32291;52.010;4.446;2023-02-18T04:58:21;10.10;99.90
47521;DHT22;32291;52.010;4.446;2023-02-18T04:59:23;10.00;99.90
47521;DHT22;32291;52.010;4.446;2023-02-18T05:00:24;10.10;99.90
47521;DHT22;32291;52.010;4.446;2023-02-18T05:01:27;10.10;99.90
47521;DHT22;32291;52.010;4.446;2023-02-18T05:02:28;10.10;99.90
47521;DHT22;32291;52.010;4.446;2023-02-18T05:03:30;10.10;99.90
47521;DHT22;32291;52.010;4.446;2023-02-18T05:04:32;10.00;99.90
47521;DHT22;32291;52.010;4.446;2023-02-18T05:05:33;10.10;99.90
47521;DHT22;32291;52.010;4.446;2023-02-18T05:06:35;10.00;99.90
47521;DHT22;32291;52.010;4.446;2023-02-18T05:07:39;10.00;99.90
47521;DHT22;32291;52.010;4.446;2023-02-18T05:08:42;10.10;99.90
47521;DHT22;32291;52.010;4.446;2023-02-18T05:09:43;10.00;99.90
47521;DHT22;32291;52.010;4.446;2023-02-18T05:10:45;10.10;99.90
47521;DHT22;32291;52.010;4.446;2023-02-18T05:11:46;10.10;99.90
47521;DHT22;32291;52.010;4.446;2023-02-18T05:12:48;10.10;99.90
47521;DHT22;32291;52.010;4.446;2023-02-18T05:13:49;10.10;99.90
47521;DHT22;32291;52.010;4.446;2023-02-18T05:14:50;10.10;99.90
47521;DHT22;32291;52.010;4.446;2023-02-18T05:15:52;10.10;99.90
47521;DHT22;32291;52.010;4.446;2023-02-18T05:16:54;10.10;99.90
47521;DHT22;32291;52.010;4.446;2023-02-18T05:17:55;10.10;99.90
47521;DHT22;32291;52.010;4.446;2023-02-18T05:18:57;10.20;99.90
47521;DHT22;32291;52.010;4.446;2023-02-18T05:19:59;10.10;99.90
47521;DHT22;32291;52.010;4.446;2023-02-18T05:21:00;10.10;99.90
47521;DHT22;32291;52.010;4.446;2023-02-18T05:22:01;10.10;99.90
47521;DHT22;32291;52.010;4.446;2023-02-18T05:23:02;10.10;99.90
47521;DHT22;32291;52.010;4.446;2023-02-18T05:24:04;10.20;99.90
47521;DHT22;32291;52.010;4.446;2023-02-18T05:25:05;10.20;99.90
47521;DHT22;32291;52.010;4.446;2023-02-18T05:26:07;10.20;99.90
47521;DHT22;32291;52.010;4.446;2023-02-18T05:27:09;10.20;99.90
47521;DHT22;32291;52.010;4.446;2023-02-18T05:28:10;10.20;99.90
47521;DHT22;32291;52.010;4.446;2023-02-18T05:29:11;10.20;99.90
47521;DHT22;32291;52.010;4.446;2023-02-18T05:30:13;10.20;99.90
47521;DHT22;32291;52.010;4.446;2023-02-18T05:31:14;10.20;99.90
47521;DHT22;32291;52.010;4.446;2023-02-18T05:32:16;10.20;99.90
47521;DHT22;32291;52.010;4.446;2023-02-18T05:33:17;10.20;99.90
47521;DHT22;32291;52.010;4.446;2023-02-18T05:34:19;10.20;99.90
47521;DHT22;32291;52.010;4.446;2023-02-18T05:35:20;10.20;99.90
47521;DHT22;32291;52.010;4.446;2023-02-18T05:36:21;10.20;99.90
47521;DHT22;32291;52.010;4.446;2023-02-18T05:37:23;10.20;99.90
47521;DHT22;32291;52.010;4.446;2023-02-18T05:38:24;10.20;99.90
47521;DHT22;32291;52.010;4.446;2023-02-18T05:39:25;10.10;99.90
47521;DHT22;32291;52.010;4.446;2023-02-18T05:40:27;10.20;99.90
47521;DHT22;32291;52.010;4.446;2023-02-18T05:41:28;10.20;99.90
47521;DHT22;32291;52.010;4.446;2023-02-18T05:42:30;10.10;99.90
47521;DHT22;32291;52.010;4.446;2023-02-18T05:43:33;10.20;99.90
47521;DHT22;32291;52.010;4.446;2023-02-18T05:44:57;10.10;99.90
47521;DHT22;32291;52.010;4.446;2023-02-18T05:45:59;10.10;99.90
47521;DHT22;32291;52.010;4.446;2023-02-18T05:47:04;10.10;99.90
47521;DHT22;32291;52.010;4.446;2023-02-18T05:48:05;10.10;99.90
47521;DHT22;32291;52.010;4.446;2023-02-18T05:49:06;10.10;99.90
47521;DHT22;32291;52.010;4.446;2023-02-18T05:50:08;10.00;99.90
47521;DHT22;32291;52.010;4.446;2023-02-18T05:51:09;10.10;99.90
47521;DHT22;32291;52.010;4.446;2023-02-18T05:52:11;10.10;99.90
47521;DHT22;32291;52.010;4.446;2023-02-18T05:53:12;10.00;99.90
47521;DHT22;32291;52.010;4.446;2023-02-18T05:54:13;10.00;99.90
47521;DHT22;32291;52.010;4.446;2023-02-18T05:55:15;10.00;99.90
47521;DHT22;32291;52.010;4.446;2023-02-18T05:56:16;10.00;99.90
47521;DHT22;32291;52.010;4.446;2023-02-18T05:57:18;10.00;99.90
47521;DHT22;32291;52.010;4.446;2023-02-18T05:58:19;10.00;99.90
47521;DHT22;32291;52.010;4.446;2023-02-18T05:59:21;9.90;99.90
47521;DHT22;32291;52.010;4.446;2023-02-18T06:00:22;10.00;99.90
47521;DHT22;32291;52.010;4.446;2023-02-18T06:01:23;10.00;99.90
47521;DHT22;32291;52.010;4.446;2023-02-18T06:02:25;9.90;99.90
47521;DHT22;32291;52.010;4.446;2023-02-18T06:03:26;10.00;99.90
47521;DHT22;32291;52.010;4.446;2023-02-18T06:04:28;9.90;99.90
47521;DHT22;32291;52.010;4.446;2023-02-18T06:05:29;10.00;99.90
47521;DHT22;32291;52.010;4.446;2023-02-18T06:06:31;10.00;99.90
47521;DHT22;32291;52.010;4.446;2023-02-18T06:07:32;10.00;99.90
47521;DHT22;32291;52.010;4.446;2023-02-18T06:08:34;10.00;99.90
47521;DHT22;32291;52.010;4.446;2023-02-18T06:09:35;10.00;99.90
47521;DHT22;32291;52.010;4.446;2023-02-18T06:10:36;10.00;99.90
47521;DHT22;32291;52.010;4.446;2023-02-18T06:11:40;10.00;99.90
47521;DHT22;32291;52.010;4.446;2023-02-18T06:12:41;10.00;99.90
47521;DHT22;32291;52.010;4.446;2023-02-18T06:13:43;9.90;99.90
47521;DHT22;32291;52.010;4.446;2023-02-18T06:14:44;10.00;99.90
47521;DHT22;32291;52.010;4.446;2023-02-18T06:15:45;10.00;99.90
47521;DHT22;32291;52.010;4.446;2023-02-18T06:16:47;10.00;99.90
47521;DHT22;32291;52.010;4.446;2023-02-18T06:17:48;10.00;99.90
47521;DHT22;32291;52.010;4.446;2023-02-18T06:18:49;10.00;99.90
47521;DHT22;32291;52.010;4.446;2023-02-18T06:19:50;10.00;99.90
47521;DHT22;32291;52.010;4.446;2023-02-18T06:20:52;10.00;99.90
47521;DHT22;32291;52.010;4.446;2023-02-18T06:21:53;10.00;99.90
47521;DHT22;32291;52.010;4.446;2023-02-18T06:22:56;10.10;99.90
47521;DHT22;32291;52.010;4.446;2023-02-18T06:23:57;10.00;99.90
47521;DHT22;32291;52.010;4.446;2023-02-18T06:24:58;10.10;99.90
47521;DHT22;32291;52.010;4.446;2023-02-18T06:25:59;10.00;99.90
47521;DHT22;32291;52.010;4.446;2023-02-18T06:27:01;10.00;99.90
47521;DHT22;32291;52.010;4.446;2023-02-18T06:28:03;10.00;99.90
47521;DHT22;32291;52.010;4.446;2023-02-18T06:29:04;10.00;99.90
47521;DHT22;32291;52.010;4.446;2023-02-18T06:30:06;10.10;99.90
47521;DHT22;32291;52.010;4.446;2023-02-18T06:31:11;10.00;99.90
47521;DHT22;32291;52.010;4.446;2023-02-18T06:32:13;10.10;99.90
47521;DHT22;32291;52.010;4.446;2023-02-18T06:33:14;10.10;99.90
47521;DHT22;32291;52.010;4.446;2023-02-18T06:34:16;10.10;99.90
47521;DHT22;32291;52.010;4.446;2023-02-18T06:35:17;10.10;99.90
47521;DHT22;32291;52.010;4.446;2023-02-18T06:36:19;10.10;99.90
47521;DHT22;32291;52.010;4.446;2023-02-18T06:37:20;10.10;99.90
47521;DHT22;32291;52.010;4.446;2023-02-18T06:38:22;10.10;99.90
47521;DHT22;32291;52.010;4.446;2023-02-18T06:39:23;10.00;99.90
47521;DHT22;32291;52.010;4.446;2023-02-18T06:40:24;10.00;99.90
47521;DHT22;32291;52.010;4.446;2023-02-18T06:41:26;10.00;99.90
47521;DHT22;32291;52.010;4.446;2023-02-18T06:42:27;10.00;99.90
47521;DHT22;32291;52.010;4.446;2023-02-18T06:43:29;10.00;99.90
47521;DHT22;32291;52.010;4.446;2023-02-18T06:44:31;10.00;99.90
47521;DHT22;32291;52.010;4.446;2023-02-18T06:45:32;9.90;99.90
47521;DHT22;32291;52.010;4.446;2023-02-18T06:46:34;10.00;99.90
47521;DHT22;32291;52.010;4.446;2023-02-18T06:47:35;10.00;99.90
47521;DHT22;32291;52.010;4.446;2023-02-18T06:48:36;10.00;99.90
47521;DHT22;32291;52.010;4.446;2023-02-18T06:49:38;9.90;99.90
47521;DHT22;32291;52.010;4.446;2023-02-18T06:50:40;9.90;99.90
47521;DHT22;32291;52.010;4.446;2023-02-18T06:51:42;9.90;99.90
47521;DHT22;32291;52.010;4.446;2023-02-18T06:52:43;10.00;99.90
47521;DHT22;32291;52.010;4.446;2023-02-18T06:53:45;10.00;99.90
47521;DHT22;32291;52.010;4.446;2023-02-18T06:54:46;9.90;99.90
47521;DHT22;32291;52.010;4.446;2023-02-18T06:55:47;9.90;99.90
47521;DHT22;32291;52.010;4.446;2023-02-18T06:56:49;9.90;99.90
47521;DHT22;32291;52.010;4.446;2023-02-18T06:57:51;9.90;99.90
47521;DHT22;32291;52.010;4.446;2023-02-18T06:58:52;9.90;99.90
47521;DHT22;32291;52.010;4.446;2023-02-18T06:59:54;9.90;99.90
47521;DHT22;32291;52.010;4.446;2023-02-18T07:00:55;9.90;99.90
47521;DHT22;32291;52.010;4.446;2023-02-18T07:01:57;9.90;99.90
47521;DHT22;32291;52.010;4.446;2023-02-18T07:02:59;9.90;99.90
47521;DHT22;32291;52.010;4.446;2023-02-18T07:04:00;9.90;99.90
47521;DHT22;32291;52.010;4.446;2023-02-18T07:05:02;9.90;99.90
47521;DHT22;32291;52.010;4.446;2023-02-18T07:06:04;9.80;99.90
47521;DHT22;32291;52.010;4.446;2023-02-18T07:07:05;9.80;99.90
47521;DHT22;32291;52.010;4.446;2023-02-18T07:08:07;9.80;99.90
47521;DHT22;32291;52.010;4.446;2023-02-18T07:09:08;9.80;99.90
47521;DHT22;32291;52.010;4.446;2023-02-18T07:10:10;9.80;99.90
47521;DHT22;32291;52.010;4.446;2023-02-18T07:11:11;9.80;99.90
47521;DHT22;32291;52.010;4.446;2023-02-18T07:12:13;9.70;99.90
47521;DHT22;32291;52.010;4.446;2023-02-18T07:13:15;9.70;99.90
47521;DHT22;32291;52.010;4.446;2023-02-18T07:14:17;9.80;99.90
47521;DHT22;32291;52.010;4.446;2023-02-18T07:15:18;9.80;99.90
47521;DHT22;32291;52.010;4.446;2023-02-18T07:16:24;9.80;99.90
47521;DHT22;32291;52.010;4.446;2023-02-18T07:17:25;9.80;99.90
47521;DHT22;32291;52.010;4.446;2023-02-18T07:18:27;9.80;99.90
47521;DHT22;32291;52.010;4.446;2023-02-18T07:19:28;9.80;99.90
47521;DHT22;32291;52.010;4.446;2023-02-18T07:20:30;9.80;99.90
47521;DHT22;32291;52.010;4.446;2023-02-18T07:21:32;9.80;99.90
47521;DHT22;32291;52.010;4.446;2023-02-18T07:22:33;9.80;99.90